Time;durP1;ratioP1;P1;durP2;ratioP2;P2;SDS_P1;SDS_P2;PMS_P1;PMS_P2;Temp;Humidity;BMP_temperature;BMP_pressure;BME280_temperature;BME280_humidity;BME280_pressure;Samples;Min_cycle;Max_cycle;Signal;HPM_P1;HPM_P2
2020/12/08 00:01:00;;;;;;;62.20;18.55;;;6.90;91.90;;;;;;5005414;28;20048;-56
2020/12/08 00:03:26;;;;;;;52.13;16.60;;;6.80;91.90;;;;;;5006437;28;20053;-57
2020/12/08 00:05:52;;;;;;;63.83;16.63;;;6.80;92.20;;;;;;5005689;28;20040;-56
2020/12/08 00:08:17;;;;;;;62.15;16.05;;;6.80;91.90;;;;;;5008198;28;20438;-57
2020/12/08 00:10:43;;;;;;;59.33;17.02;;;6.80;91.90;;;;;;5007437;28;20038;-57
2020/12/08 00:13:08;;;;;;;60.90;15.77;;;6.80;91.90;;;;;;5006951;28;20507;-56
2020/12/08 00:15:34;;;;;;;60.20;16.25;;;6.80;91.90;;;;;;5016213;28;20116;-56
2020/12/08 00:17:59;;;;;;;57.15;15.93;;;6.70;91.90;;;;;;5022196;28;20037;-56
2020/12/08 00:20:26;;;;;;;62.58;16.52;;;6.70;91.90;;;;;;5009260;28;20454;-57
2020/12/08 00:22:51;;;;;;;62.85;15.73;;;6.70;91.90;;;;;;4990170;28;20424;-56
2020/12/08 00:25:17;;;;;;;46.60;15.15;;;6.70;92.00;;;;;;5025173;28;20034;-55
2020/12/08 00:27:42;;;;;;;64.30;14.43;;;6.70;92.00;;;;;;5006219;28;20049;-56
2020/12/08 00:30:09;;;;;;;53.83;15.93;;;6.70;92.00;;;;;;5006793;28;20048;-56
2020/12/08 00:32:37;;;;;;;56.95;15.95;;;6.70;92.00;;;;;;4973853;28;20480;-56
2020/12/08 00:35:02;;;;;;;60.10;15.27;;;6.60;91.90;;;;;;5008603;28;20034;-56
2020/12/08 00:37:28;;;;;;;54.25;16.30;;;6.60;91.90;;;;;;5008297;28;20079;-56
2020/12/08 00:39:53;;;;;;;50.65;16.52;;;6.60;91.90;;;;;;5012195;28;20049;-56
2020/12/08 00:42:19;;;;;;;68.25;16.52;;;6.60;91.90;;;;;;5019771;28;20037;-56
2020/12/08 00:44:44;;;;;;;61.85;15.45;;;6.60;92.00;;;;;;5006859;28;20494;-56
2020/12/08 00:47:10;;;;;;;54.95;14.80;;;6.60;92.00;;;;;;5031828;28;20367;-56
2020/12/08 00:49:35;;;;;;;42.45;13.18;;;6.60;92.00;;;;;;5007969;28;20036;-56
2020/12/08 00:52:01;;;;;;;46.75;14.68;;;6.60;91.90;;;;;;5017880;28;20033;-56
2020/12/08 00:54:26;;;;;;;41.72;14.77;;;6.80;92.00;;;;;;5031015;28;20014;-56
2020/12/08 00:56:52;;;;;;;47.92;14.02;;;6.60;91.90;;;;;;5004652;28;20360;-56
2020/12/08 00:59:17;;;;;;;42.13;14.60;;;6.50;91.90;;;;;;5003082;28;20183;-56
2020/12/08 01:01:43;;;;;;;45.17;14.77;;;6.50;91.90;;;;;;5006905;28;20037;-56
2020/12/08 01:04:09;;;;;;;48.42;14.15;;;6.50;91.90;;;;;;5007351;28;20051;-56
2020/12/08 01:06:38;;;;;;;46.75;14.23;;;6.50;91.90;;;;;;5004560;28;20516;-56
2020/12/08 01:09:06;;;;;;;39.47;14.43;;;6.50;91.90;;;;;;5010956;28;20025;-57
2020/12/08 01:11:32;;;;;;;48.72;14.65;;;6.50;91.80;;;;;;5010967;28;20018;-56
2020/12/08 01:13:58;;;;;;;38.28;13.07;;;6.50;91.80;;;;;;5005378;28;20026;-56
2020/12/08 01:16:24;;;;;;;42.95;14.10;;;6.50;91.90;;;;;;4999120;28;20040;-56
2020/12/08 01:18:50;;;;;;;38.35;13.55;;;6.50;91.90;;;;;;4998927;28;20537;-56
2020/12/08 01:21:16;;;;;;;39.60;12.73;;;6.50;91.90;;;;;;5008296;28;20513;-56
2020/12/08 01:23:46;;;;;;;36.10;12.80;;;6.50;91.90;;;;;;5009411;28;20520;-56
2020/12/08 01:26:11;;;;;;;54.58;13.98;;;6.40;91.90;;;;;;5006363;28;20042;-56
2020/12/08 01:28:37;;;;;;;40.65;14.00;;;6.40;91.90;;;;;;4989949;28;20038;-56
2020/12/08 01:31:02;;;;;;;41.10;14.23;;;6.40;91.90;;;;;;5006683;28;20030;-57
2020/12/08 01:33:29;;;;;;;41.05;13.40;;;6.40;91.90;;;;;;5010466;28;20197;-57
2020/12/08 01:35:55;;;;;;;43.80;15.00;;;6.40;91.80;;;;;;5008991;28;20381;-56
2020/12/08 01:38:20;;;;;;;38.00;13.02;;;6.40;91.80;;;;;;5004304;28;20038;-55
2020/12/08 01:40:53;;;;;;;34.55;12.70;;;6.40;91.80;;;;;;5009645;28;20021;-56
2020/12/08 01:43:19;;;;;;;37.95;13.52;;;6.40;91.80;;;;;;4999367;28;20033;-57
2020/12/08 01:45:44;;;;;;;41.22;13.05;;;6.40;91.80;;;;;;5004658;28;20030;-56
2020/12/08 01:48:10;;;;;;;32.00;11.95;;;6.40;91.80;;;;;;5005256;28;20049;-57
2020/12/08 01:50:35;;;;;;;34.45;13.20;;;6.40;91.90;;;;;;5021633;28;20517;-56
2020/12/08 01:53:01;;;;;;;38.78;12.93;;;6.30;91.90;;;;;;5006522;28;20061;-57
2020/12/08 01:55:26;;;;;;;33.50;13.38;;;6.30;91.90;;;;;;5006677;28;20048;-56
2020/12/08 01:57:51;;;;;;;34.58;12.80;;;6.30;91.90;;;;;;4992277;28;20052;-57
2020/12/08 02:00:17;;;;;;;31.92;13.02;;;6.30;91.80;;;;;;5024953;28;20029;-56
2020/12/08 02:02:44;;;;;;;32.60;12.80;;;6.30;91.80;;;;;;5010209;28;20532;-56
2020/12/08 02:05:09;;;;;;;38.20;14.25;;;6.30;91.80;;;;;;4992446;28;20033;-57
2020/12/08 02:07:44;;;;;;;26.30;11.55;;;6.30;91.80;;;;;;5013454;28;20031;-56
2020/12/08 02:10:10;;;;;;;30.35;13.95;;;6.30;91.80;;;;;;5011658;28;20074;-56
2020/12/08 02:12:36;;;;;;;31.42;12.15;;;6.30;91.70;;;;;;4988928;28;20164;-56
2020/12/08 02:15:01;;;;;;;34.70;12.65;;;6.30;91.70;;;;;;5020015;28;20034;-55
2020/12/08 02:17:27;;;;;;;33.28;12.48;;;6.20;91.70;;;;;;5010140;28;20389;-57
2020/12/08 02:19:56;;;;;;;33.65;13.23;;;6.20;91.70;;;;;;5009624;28;20453;-57
2020/12/08 02:22:21;;;;;;;35.85;12.15;;;6.20;91.70;;;;;;5010539;28;20030;-56
2020/12/08 02:24:47;;;;;;;25.90;11.60;;;6.20;91.80;;;;;;5023591;28;20041;-56
2020/12/08 02:27:12;;;;;;;26.52;12.93;;;6.20;91.80;;;;;;5009320;28;20064;-56
2020/12/08 02:29:38;;;;;;;29.52;13.20;;;6.20;91.70;;;;;;5026583;28;20108;-56
2020/12/08 02:32:03;;;;;;;31.80;13.30;;;6.20;91.80;;;;;;5010606;28;20034;-56
2020/12/08 02:34:29;;;;;;;32.95;11.77;;;6.10;91.80;;;;;;5009659;28;20161;-56
2020/12/08 02:36:58;;;;;;;36.15;12.20;;;6.10;91.80;;;;;;5006480;28;20104;-56
2020/12/08 02:39:25;;;;;;;35.25;12.35;;;6.10;91.80;;;;;;5009672;28;20026;-56
2020/12/08 02:41:50;;;;;;;24.90;11.20;;;6.10;91.80;;;;;;5009217;28;20030;-56
2020/12/08 02:44:16;;;;;;;25.73;12.40;;;6.10;91.80;;;;;;5010489;28;20057;-55
2020/12/08 02:46:43;;;;;;;32.30;12.25;;;6.10;91.80;;;;;;5008344;28;20040;-56
2020/12/08 02:49:08;;;;;;;25.08;12.38;;;6.00;91.80;;;;;;5007374;28;20034;-57
2020/12/08 02:51:33;;;;;;;28.70;11.95;;;6.10;91.70;;;;;;5017112;28;20066;-56
2020/12/08 02:53:59;;;;;;;36.78;12.75;;;6.10;91.70;;;;;;5009141;28;20116;-57
2020/12/08 02:56:25;;;;;;;28.30;13.10;;;6.10;91.70;;;;;;5011005;28;20574;-56
2020/12/08 02:58:50;;;;;;;22.70;12.93;;;6.00;91.70;;;;;;5009004;28;20034;-55
2020/12/08 03:01:19;;;;;;;29.75;13.35;;;6.00;91.70;;;;;;5006551;28;20036;-58
2020/12/08 03:03:45;;;;;;;28.63;13.05;;;6.00;91.70;;;;;;5005645;28;20046;-58
2020/12/08 03:06:10;;;;;;;29.50;13.57;;;6.00;91.70;;;;;;5017433;28;20586;-56
2020/12/08 03:08:36;;;;;;;24.33;11.60;;;6.00;91.70;;;;;;5010713;28;20022;-56
2020/12/08 03:11:01;;;;;;;25.42;12.30;;;6.00;91.70;;;;;;5012691;28;20457;-56
2020/12/08 03:13:29;;;;;;;26.33;11.43;;;5.90;91.80;;;;;;5010476;28;20092;-57
2020/12/08 03:15:55;;;;;;;20.63;12.32;;;6.00;91.80;;;;;;5012894;28;20042;-56
2020/12/08 03:18:20;;;;;;;23.80;12.30;;;6.00;91.80;;;;;;5008878;28;20036;-56
2020/12/08 03:20:46;;;;;;;25.98;12.82;;;6.00;91.80;;;;;;5008993;28;20478;-56
2020/12/08 03:23:11;;;;;;;22.92;11.48;;;5.90;91.70;;;;;;5015285;28;20038;-55
2020/12/08 03:25:37;;;;;;;23.70;11.82;;;5.90;91.70;;;;;;5030127;28;20397;-55
2020/12/08 03:28:03;;;;;;;29.48;12.02;;;5.90;91.80;;;;;;5005429;28;20049;-55
2020/12/08 03:30:28;;;;;;;24.55;12.40;;;5.90;91.80;;;;;;4990419;28;20505;-56
2020/12/08 03:32:54;;;;;;;23.38;12.57;;;5.90;91.80;;;;;;5014552;28;20117;-56
2020/12/08 03:35:19;;;;;;;26.08;12.02;;;5.80;91.80;;;;;;5009946;28;20049;-57
2020/12/08 03:37:45;;;;;;;25.02;11.73;;;5.90;91.80;;;;;;5013490;28;20026;-56
2020/12/08 03:40:10;;;;;;;20.42;11.30;;;5.90;91.80;;;;;;5014976;28;20032;-56
2020/12/08 03:42:36;;;;;;;26.15;13.48;;;5.80;91.80;;;;;;5008812;28;20403;-57
2020/12/08 03:45:01;;;;;;;29.00;12.85;;;5.80;92.00;;;;;;4994467;28;20441;-57
2020/12/08 03:47:27;;;;;;;22.90;11.68;;;5.80;91.80;;;;;;5009022;28;20116;-56
2020/12/08 03:49:52;;;;;;;23.83;11.20;;;5.80;91.80;;;;;;5005721;28;20027;-57
2020/12/08 03:52:19;;;;;;;18.63;12.20;;;5.80;91.80;;;;;;5012980;28;20040;-56
2020/12/08 03:54:44;;;;;;;17.80;11.68;;;5.80;91.80;;;;;;5003044;28;20270;-56
2020/12/08 03:57:10;;;;;;;19.73;12.38;;;5.80;91.80;;;;;;5008027;28;20038;-56
2020/12/08 03:59:35;;;;;;;24.45;12.70;;;5.80;91.80;;;;;;5009169;28;20477;-56
2020/12/08 04:02:01;;;;;;;28.58;12.10;;;5.80;91.80;;;;;;5007273;28;20033;-57
2020/12/08 04:04:26;;;;;;;17.52;11.45;;;5.80;91.80;;;;;;5010851;28;20046;-56
2020/12/08 04:06:52;;;;;;;23.00;11.80;;;5.70;91.80;;;;;;5015025;28;20018;-57
2020/12/08 04:09:17;;;;;;;19.73;11.93;;;5.80;91.80;;;;;;5018134;28;20128;-56
2020/12/08 04:11:43;;;;;;;25.40;12.02;;;5.80;91.80;;;;;;5019353;28;20030;-57
2020/12/08 04:14:08;;;;;;;19.52;11.68;;;5.70;91.80;;;;;;5009011;28;20034;-56
2020/12/08 04:16:36;;;;;;;27.08;12.27;;;5.70;91.80;;;;;;5008215;28;20425;-56
2020/12/08 04:19:02;;;;;;;17.35;12.90;;;5.70;91.80;;;;;;5002553;28;20103;-56
2020/12/08 04:21:28;;;;;;;19.70;11.85;;;5.70;92.20;;;;;;5005061;28;20038;-56
2020/12/08 04:23:54;;;;;;;22.48;12.18;;;5.70;91.90;;;;;;5004814;28;20037;-55
2020/12/08 04:26:23;;;;;;;24.15;12.73;;;5.70;91.90;;;;;;5005670;28;20202;-56
2020/12/08 04:28:48;;;;;;;21.95;11.93;;;5.70;91.80;;;;;;5007735;28;20037;-57
2020/12/08 04:31:17;;;;;;;23.05;12.55;;;5.70;91.80;;;;;;4994735;28;20030;-55
2020/12/08 04:33:43;;;;;;;23.90;12.63;;;5.70;91.80;;;;;;5013714;28;20034;-56
2020/12/08 04:36:15;;;;;;;19.80;12.07;;;5.70;91.90;;;;;;5006423;28;20042;-56
2020/12/08 04:38:41;;;;;;;25.05;11.65;;;5.70;91.80;;;;;;5007176;28;20034;-57
2020/12/08 04:41:07;;;;;;;21.60;11.23;;;5.70;91.80;;;;;;5008077;28;20048;-57
2020/12/08 04:43:32;;;;;;;19.00;12.70;;;5.70;91.90;;;;;;5013330;28;20032;-57
2020/12/08 04:45:58;;;;;;;19.77;12.02;;;5.70;91.90;;;;;;5010249;28;20026;-57
2020/12/08 04:48:24;;;;;;;17.40;12.05;;;5.70;92.30;;;;;;5007548;28;20092;-57
2020/12/08 04:50:50;;;;;;;20.63;11.52;;;5.70;92.00;;;;;;5007503;28;20061;-56
2020/12/08 04:53:15;;;;;;;17.35;11.65;;;5.70;92.40;;;;;;5021311;28;20533;-56
2020/12/08 04:55:41;;;;;;;26.77;12.38;;;5.70;92.10;;;;;;5019489;28;20629;-57
2020/12/08 04:58:08;;;;;;;18.92;12.27;;;5.70;92.10;;;;;;5011994;28;20033;-56
2020/12/08 05:00:40;;;;;;;23.02;11.75;;;5.70;92.10;;;;;;4989574;28;20042;-57
2020/12/08 05:03:06;;;;;;;24.83;12.93;;;5.70;92.20;;;;;;5003710;28;20053;-57
2020/12/08 05:05:38;;;;;;;22.52;12.43;;;5.70;92.20;;;;;;5008893;28;20022;-57
2020/12/08 05:08:10;;;;;;;18.60;12.27;;;5.70;92.20;;;;;;5007124;28;20424;-56
2020/12/08 05:10:36;;;;;;;16.77;12.05;;;5.70;92.10;;;;;;5005940;28;20054;-56
2020/12/08 05:13:02;;;;;;;22.95;12.63;;;5.60;92.10;;;;;;5009586;28;20110;-56
2020/12/08 05:15:27;;;;;;;18.73;12.20;;;5.70;92.10;;;;;;5011564;28;20018;-57
2020/12/08 05:18:03;;;;;;;19.02;12.13;;;5.60;92.10;;;;;;5017932;28;20028;-56
2020/12/08 05:20:28;;;;;;;;;;;5.60;92.10;;;;;;5009034;28;20038;-56
2020/12/08 05:22:55;;;;;;;;;;;5.60;92.10;;;;;;5008594;28;19963;-56
2020/12/08 05:25:21;;;;;;;21.25;12.15;;;5.60;92.10;;;;;;5021522;28;19913;-56
2020/12/08 05:27:50;;;;;;;24.00;12.10;;;5.60;92.10;;;;;;5010107;28;20465;-57
2020/12/08 05:30:15;;;;;;;18.58;11.85;;;5.60;92.10;;;;;;5006020;28;20088;-56
2020/12/08 05:32:42;;;;;;;21.63;11.40;;;5.60;92.10;;;;;;5009657;28;20041;-56
2020/12/08 05:35:18;;;;;;;21.15;11.73;;;5.60;92.10;;;;;;5006518;28;20038;-57
2020/12/08 05:37:45;;;;;;;14.95;11.48;;;5.60;92.10;;;;;;5006254;28;20052;-56
2020/12/08 05:40:18;;;;;;;22.15;12.43;;;5.60;92.10;;;;;;5003369;28;20049;-56
2020/12/08 05:42:45;;;;;;;16.42;11.63;;;5.60;92.10;;;;;;4993641;28;20044;-57
2020/12/08 05:45:12;;;;;;;18.70;13.05;;;5.60;92.10;;;;;;5022856;28;20116;-57
2020/12/08 05:47:48;;;;;;;18.13;12.68;;;5.70;92.10;;;;;;5006851;28;20083;-58
2020/12/08 05:50:14;;;;;;;23.17;13.73;;;5.70;92.10;;;;;;4989513;28;20028;-58
2020/12/08 05:52:45;;;;;;;28.02;14.48;;;5.60;92.00;;;;;;4986989;28;20510;-57
2020/12/08 05:55:19;;;;;;;19.10;13.70;;;5.60;92.00;;;;;;5008965;28;20139;-57
2020/12/08 05:57:44;;;;;;;22.33;13.88;;;5.60;92.00;;;;;;5009856;28;20061;-55
2020/12/08 06:00:26;;;;;;;17.25;11.88;;;5.60;92.00;;;;;;5007300;28;20053;-56
2020/12/08 06:02:53;;;;;;;24.40;13.68;;;5.60;92.00;;;;;;5003237;28;20042;-57
2020/12/08 06:05:34;;;;;;;24.80;13.93;;;5.60;92.00;;;;;;4984934;28;20033;-56
2020/12/08 06:08:11;;;;;;;29.02;13.68;;;5.60;92.00;;;;;;5007859;28;20072;-57
2020/12/08 06:10:45;;;;;;;28.70;14.13;;;5.60;91.90;;;;;;4989481;28;20030;-57
2020/12/08 06:13:21;;;;;;;27.57;15.03;;;5.60;91.90;;;;;;5013914;28;20021;-56
2020/12/08 06:15:46;;;;;;;;;;;5.60;91.90;;;;;;5001099;28;20125;-56
2020/12/08 06:18:12;;;;;;;;;;;5.60;91.90;;;;;;5005922;28;19905;-57
2020/12/08 06:20:37;;;;;;;37.47;15.50;;;5.60;91.80;;;;;;5004975;28;19959;-57
2020/12/08 06:23:03;;;;;;;23.23;14.63;;;5.60;91.80;;;;;;5011878;28;20026;-56
2020/12/08 06:25:28;;;;;;;25.65;16.20;;;5.60;91.70;;;;;;5022379;28;20041;-57
2020/12/08 06:28:01;;;;;;;28.85;15.40;;;5.60;91.70;;;;;;5004206;28;20029;-57
2020/12/08 06:30:27;;;;;;;35.17;16.02;;;5.60;91.70;;;;;;4974478;28;20336;-57
2020/12/08 06:32:52;;;;;;;24.02;14.02;;;5.60;91.70;;;;;;4997888;28;20101;-57
2020/12/08 06:35:18;;;;;;;37.40;15.82;;;5.60;91.70;;;;;;4999840;28;20962;-57
2020/12/08 06:37:53;;;;;;;33.70;16.58;;;5.70;91.70;;;;;;4977437;28;20168;-57
2020/12/08 06:40:20;;;;;;;26.45;15.77;;;5.60;91.60;;;;;;5012446;28;20100;-56
2020/12/08 06:42:46;;;;;;;22.35;15.50;;;5.60;91.50;;;;;;4990091;28;20045;-56
2020/12/08 06:45:20;;;;;;;33.97;16.42;;;5.60;91.50;;;;;;5005840;28;20046;-57
2020/12/08 06:47:46;;;;;;;27.83;16.67;;;5.60;91.60;;;;;;5002071;28;20022;-58
2020/12/08 06:50:31;;;;;;;24.70;16.80;;;5.60;91.60;;;;;;5005523;28;20029;-57
2020/12/08 06:53:00;;;;;;;29.67;15.82;;;5.60;91.60;;;;;;5020772;28;20037;-55
2020/12/08 06:55:26;;;;;;;29.35;16.58;;;5.60;91.60;;;;;;5011437;28;20080;-57
2020/12/08 06:57:52;;;;;;;26.80;17.55;;;5.60;91.60;;;;;;4985357;28;20064;-56
2020/12/08 07:00:18;;;;;;;28.27;16.67;;;5.70;91.60;;;;;;5005140;28;20030;-57
2020/12/08 07:02:49;;;;;;;29.00;16.00;;;5.60;91.60;;;;;;5007511;28;20046;-56
2020/12/08 07:05:20;;;;;;;23.70;16.13;;;5.70;91.60;;;;;;5010434;28;20490;-57
2020/12/08 07:07:46;;;;;;;35.75;16.88;;;5.70;91.60;;;;;;5011252;28;20040;-56
2020/12/08 07:10:12;;;;;;;26.83;15.93;;;5.70;91.60;;;;;;4991804;28;20032;-57
2020/12/08 07:12:51;;;;;;;30.23;16.27;;;5.60;91.60;;;;;;5006686;28;20045;-57
2020/12/08 07:15:18;;;;;;;23.60;15.77;;;5.60;91.60;;;;;;5008245;28;20092;-57
2020/12/08 07:17:43;;;;;;;23.35;17.23;;;5.60;91.60;;;;;;5007918;28;20398;-57
2020/12/08 07:20:09;;;;;;;20.77;16.02;;;5.60;91.60;;;;;;5007637;28;20030;-57
2020/12/08 07:22:42;;;;;;;22.08;16.77;;;5.60;91.60;;;;;;5003379;28;20519;-57
2020/12/08 07:25:08;;;;;;;22.50;16.13;;;5.60;91.50;;;;;;4989828;28;20034;-56
2020/12/08 07:27:34;;;;;;;55.53;19.23;;;5.60;91.50;;;;;;5008268;28;20158;-58
2020/12/08 07:29:59;;;;;;;48.17;19.02;;;5.60;91.50;;;;;;4992041;28;20176;-56
2020/12/08 07:32:28;;;;;;;26.95;17.40;;;5.60;91.40;;;;;;5014300;28;20034;-57
2020/12/08 07:34:54;;;;;;;30.00;17.52;;;5.60;91.40;;;;;;4991931;28;20076;-57
2020/12/08 07:37:19;;;;;;;40.38;18.15;;;5.70;91.40;;;;;;5011942;28;20375;-56
2020/12/08 07:39:45;;;;;;;31.45;17.02;;;5.60;91.30;;;;;;5009642;28;20084;-57
2020/12/08 07:42:10;;;;;;;32.28;17.73;;;5.60;91.30;;;;;;5010169;28;20034;-56
2020/12/08 07:44:36;;;;;;;33.30;17.75;;;5.60;91.30;;;;;;5008278;28;20042;-56
2020/12/08 07:47:01;;;;;;;27.83;17.88;;;5.60;91.30;;;;;;4987621;28;20104;-56
2020/12/08 07:49:27;;;;;;;34.92;17.67;;;5.60;91.30;;;;;;5006869;28;20041;-56
2020/12/08 07:51:52;;;;;;;27.70;17.85;;;5.70;91.30;;;;;;5006390;28;20037;-56
2020/12/08 07:54:18;;;;;;;29.77;18.10;;;5.60;91.30;;;;;;5020609;28;20460;-56
2020/12/08 07:56:44;;;;;;;28.73;18.13;;;5.60;91.30;;;;;;4995056;28;20069;-57
2020/12/08 07:59:09;;;;;;;26.50;18.55;;;5.60;91.30;;;;;;5008890;28;20374;-56
2020/12/08 08:01:39;;;;;;;24.20;18.80;;;5.60;91.30;;;;;;5028540;28;20350;-56
2020/12/08 08:04:05;;;;;;;26.55;19.38;;;5.60;91.30;;;;;;5009227;28;20414;-57
2020/12/08 08:06:30;;;;;;;30.20;19.20;;;5.60;91.30;;;;;;5002113;28;20022;-57
2020/12/08 08:08:56;;;;;;;26.85;18.85;;;5.60;91.30;;;;;;5005316;28;20555;-57
2020/12/08 08:11:21;;;;;;;35.75;19.08;;;5.60;91.30;;;;;;5007925;28;20113;-56
2020/12/08 08:13:47;;;;;;;30.42;19.15;;;5.60;91.30;;;;;;5003871;28;20056;-57
2020/12/08 08:16:16;;;;;;;31.70;18.38;;;5.60;91.30;;;;;;5006402;28;20052;-56
2020/12/08 08:18:41;;;;;;;35.97;19.20;;;5.60;91.20;;;;;;5021778;28;20036;-57
2020/12/08 08:21:07;;;;;;;32.97;19.98;;;5.60;91.20;;;;;;5008008;28;20026;-56
2020/12/08 08:23:33;;;;;;;27.60;18.63;;;5.60;91.20;;;;;;4975367;28;20446;-56
2020/12/08 08:25:59;;;;;;;38.55;19.40;;;5.60;91.20;;;;;;4990123;28;20505;-57
2020/12/08 08:28:25;;;;;;;32.22;19.85;;;5.60;91.20;;;;;;4990035;28;20045;-56
2020/12/08 08:30:51;;;;;;;29.67;19.33;;;5.60;91.10;;;;;;5011514;28;20046;-56
2020/12/08 08:33:16;;;;;;;30.98;19.38;;;5.60;91.20;;;;;;5007235;28;20316;-56
2020/12/08 08:35:42;;;;;;;35.20;19.55;;;5.60;91.20;;;;;;5008157;28;20044;-57
2020/12/08 08:38:07;;;;;;;41.97;20.02;;;5.60;91.20;;;;;;5007614;28;20088;-57
2020/12/08 08:40:33;;;;;;;31.33;19.20;;;5.70;91.20;;;;;;5013182;28;21111;-57
2020/12/08 08:42:59;;;;;;;35.90;20.65;;;5.70;91.20;;;;;;5007359;28;20038;-56
2020/12/08 08:45:25;;;;;;;36.30;20.05;;;5.60;91.10;;;;;;5014002;28;20032;-57
2020/12/08 08:47:50;;;;;;;47.17;21.30;;;5.60;91.20;;;;;;4993687;28;20026;-56
2020/12/08 08:50:16;;;;;;;44.50;20.75;;;5.70;91.20;;;;;;4973544;28;20061;-56
2020/12/08 08:52:41;;;;;;;47.88;21.08;;;5.70;91.20;;;;;;5005079;28;20109;-56
2020/12/08 08:55:09;;;;;;;47.97;22.60;;;5.70;91.50;;;;;;5003887;28;20100;-56
2020/12/08 08:57:36;;;;;;;61.80;22.73;;;5.70;91.20;;;;;;5002121;28;20034;-56
2020/12/08 09:00:02;;;;;;;86.97;23.85;;;5.70;91.20;;;;;;5005138;28;20042;-56
2020/12/08 09:02:28;;;;;;;59.83;22.48;;;5.70;91.20;;;;;;5016471;28;20030;-56
2020/12/08 09:04:53;;;;;;;45.03;22.08;;;5.80;91.20;;;;;;5005375;28;20045;-57
2020/12/08 09:07:19;;;;;;;65.78;24.02;;;5.80;91.20;;;;;;5003616;28;20018;-57
2020/12/08 09:09:44;;;;;;;68.72;23.00;;;5.80;91.10;;;;;;4996975;28;20486;-56
2020/12/08 09:12:10;;;;;;;98.03;25.77;;;5.80;91.10;;;;;;5001617;28;20033;-56
2020/12/08 09:14:35;;;;;;;75.80;23.00;;;5.80;91.10;;;;;;5005378;28;20477;-56
2020/12/08 09:17:01;;;;;;;77.00;24.67;;;5.80;91.10;;;;;;5004205;28;20383;-57
2020/12/08 09:19:26;;;;;;;97.32;25.40;;;5.80;91.10;;;;;;5006266;28;20655;-56
2020/12/08 09:21:55;;;;;;;77.18;24.38;;;5.80;91.10;;;;;;5004588;28;20030;-57
2020/12/08 09:24:21;;;;;;;63.45;23.48;;;5.80;91.10;;;;;;5006315;28;20167;-56
2020/12/08 09:26:46;;;;;;;73.38;26.40;;;5.80;91.10;;;;;;5008993;28;20116;-56
2020/12/08 09:29:12;;;;;;;77.78;24.40;;;5.90;91.10;;;;;;5006488;28;20169;-56
2020/12/08 09:31:37;;;;;;;84.82;26.77;;;5.90;91.10;;;;;;5002256;28;20489;-56
2020/12/08 09:34:03;;;;;;;88.18;26.25;;;5.90;91.20;;;;;;5004849;28;20041;-56
2020/12/08 09:36:29;;;;;;;80.70;25.40;;;5.90;91.10;;;;;;5004953;28;20037;-56
2020/12/08 09:38:54;;;;;;;92.50;25.70;;;5.90;91.00;;;;;;5007932;28;20037;-57
2020/12/08 09:41:20;;;;;;;94.63;26.42;;;5.90;91.00;;;;;;5005527;28;20022;-57
2020/12/08 09:43:45;;;;;;;87.53;26.20;;;5.90;91.00;;;;;;5004777;28;20397;-57
2020/12/08 09:46:11;;;;;;;77.28;24.70;;;5.90;91.10;;;;;;5004814;28;20386;-56
2020/12/08 09:48:36;;;;;;;86.25;26.55;;;5.90;91.00;;;;;;5008211;28;20363;-57
2020/12/08 09:51:02;;;;;;;83.38;26.80;;;5.90;91.00;;;;;;5008885;28;20042;-57
2020/12/08 09:53:28;;;;;;;100.13;26.75;;;5.90;91.00;;;;;;5019557;28;20033;-58
2020/12/08 09:55:53;;;;;;;97.88;25.10;;;6.00;91.00;;;;;;5022246;28;20045;-56
2020/12/08 09:58:19;;;;;;;88.32;25.10;;;5.90;90.90;;;;;;5008161;28;20046;-57
2020/12/08 10:00:44;;;;;;;85.68;24.77;;;6.00;90.90;;;;;;5014451;28;20060;-56
2020/12/08 10:03:10;;;;;;;85.68;25.02;;;6.00;90.90;;;;;;5010827;28;20037;-56
2020/12/08 10:05:36;;;;;;;92.30;26.58;;;6.00;90.70;;;;;;5006431;28;20027;-56
2020/12/08 10:08:01;;;;;;;98.25;24.42;;;6.00;90.80;;;;;;5010272;28;20065;-56
2020/12/08 10:10:26;;;;;;;98.40;26.25;;;6.00;90.70;;;;;;5011636;28;20041;-56
2020/12/08 10:12:52;;;;;;;78.90;23.80;;;6.10;90.70;;;;;;5004568;28;20065;-56
2020/12/08 10:15:18;;;;;;;73.03;25.33;;;6.10;90.60;;;;;;5005123;28;20036;-56
2020/12/08 10:17:44;;;;;;;72.10;23.75;;;6.10;90.60;;;;;;4993748;28;20401;-56
2020/12/08 10:20:10;;;;;;;100.45;26.02;;;6.00;90.50;;;;;;5007070;28;20042;-55
2020/12/08 10:22:35;;;;;;;92.95;24.30;;;6.10;90.60;;;;;;5007121;28;20382;-57
2020/12/08 10:25:01;;;;;;;73.80;23.60;;;6.00;90.60;;;;;;5005253;28;20491;-57
2020/12/08 10:27:27;;;;;;;80.75;25.55;;;6.10;90.60;;;;;;5020276;28;20053;-55
2020/12/08 10:29:52;;;;;;;74.57;24.40;;;6.10;90.60;;;;;;5003171;28;20053;-56
2020/12/08 10:32:18;;;;;;;60.35;24.27;;;6.10;90.60;;;;;;5006128;28;20022;-56
2020/12/08 10:34:44;;;;;;;87.07;25.17;;;6.00;90.60;;;;;;5005409;28;20465;-56
2020/12/08 10:37:09;;;;;;;106.30;25.95;;;6.10;90.60;;;;;;5020209;28;20029;-56
2020/12/08 10:39:35;;;;;;;91.38;26.90;;;6.10;90.60;;;;;;5025927;28;20104;-56
2020/12/08 10:42:00;;;;;;;94.00;26.83;;;6.10;90.60;;;;;;5009966;28;20033;-56
2020/12/08 10:44:26;;;;;;;92.60;26.23;;;6.10;90.70;;;;;;5008723;28;20030;-57
2020/12/08 10:46:52;;;;;;;101.55;26.60;;;6.10;90.70;;;;;;5007662;28;20048;-55
2020/12/08 10:49:18;;;;;;;92.40;26.40;;;6.20;90.70;;;;;;5006728;28;20026;-56
2020/12/08 10:51:43;;;;;;;94.18;23.73;;;6.10;90.50;;;;;;5006151;28;20026;-55
2020/12/08 10:54:09;;;;;;;89.38;25.67;;;6.10;90.40;;;;;;5005547;28;20045;-55
2020/12/08 10:56:35;;;;;;;73.03;24.40;;;6.10;90.50;;;;;;5003107;28;20095;-56
2020/12/08 10:59:00;;;;;;;81.35;23.60;;;6.20;90.40;;;;;;5026875;28;20032;-55
2020/12/08 11:01:26;;;;;;;62.20;22.98;;;6.10;90.40;;;;;;5018323;28;20034;-57
2020/12/08 11:03:52;;;;;;;69.07;24.63;;;6.10;90.40;;;;;;5008736;28;20855;-56
2020/12/08 11:06:21;;;;;;;58.83;22.63;;;6.20;90.40;;;;;;5023605;28;20053;-57
2020/12/08 11:08:47;;;;;;;65.85;22.20;;;6.10;90.30;;;;;;5011380;28;20040;-55
2020/12/08 11:11:13;;;;;;;68.25;24.98;;;6.20;90.40;;;;;;5000326;28;20516;-56
2020/12/08 11:13:38;;;;;;;122.15;26.05;;;6.10;90.40;;;;;;5004435;28;20050;-55
2020/12/08 11:16:04;;;;;;;203.27;32.65;;;6.20;90.40;;;;;;4997131;28;20036;-56
2020/12/08 11:18:30;;;;;;;143.95;30.30;;;6.20;90.40;;;;;;5009830;28;20040;-57
2020/12/08 11:20:55;;;;;;;98.35;26.02;;;6.20;90.40;;;;;;4999366;28;20049;-56
2020/12/08 11:23:21;;;;;;;89.25;24.60;;;6.20;90.40;;;;;;4987507;28;20469;-56
2020/12/08 11:25:46;;;;;;;66.40;23.52;;;6.20;90.40;;;;;;5001085;28;20096;-56
2020/12/08 11:28:12;;;;;;;94.88;25.15;;;6.20;90.40;;;;;;5006107;28;20084;-57
2020/12/08 11:30:37;;;;;;;92.15;24.52;;;6.20;90.40;;;;;;5009576;28;20108;-56
2020/12/08 11:33:03;;;;;;;85.63;24.02;;;6.30;90.50;;;;;;5006462;28;20091;-57
2020/12/08 11:35:28;;;;;;;93.35;26.10;;;6.30;90.50;;;;;;5007594;28;20033;-57
2020/12/08 11:37:54;;;;;;;81.25;25.05;;;6.30;90.50;;;;;;4992108;28;20040;-56
2020/12/08 11:40:19;;;;;;;93.97;25.15;;;6.30;90.50;;;;;;5006368;28;20100;-56
2020/12/08 11:42:45;;;;;;;75.88;22.05;;;6.30;90.40;;;;;;5006273;28;20537;-57
2020/12/08 11:45:12;;;;;;;245.20;34.90;;;6.20;90.30;;;;;;5007000;28;20080;-56
2020/12/08 11:47:38;;;;;;;116.93;27.05;;;6.30;90.40;;;;;;5006993;28;20045;-56
2020/12/08 11:50:04;;;;;;;92.68;23.55;;;6.40;90.40;;;;;;5024429;28;20034;-56
2020/12/08 11:52:30;;;;;;;116.38;27.70;;;6.40;90.40;;;;;;5007964;28;20037;-58
2020/12/08 11:54:55;;;;;;;128.75;26.10;;;6.40;90.40;;;;;;5011961;28;20124;-56
2020/12/08 11:57:21;;;;;;;100.68;25.52;;;6.40;90.40;;;;;;5021462;28;20115;-57
2020/12/08 11:59:46;;;;;;;88.28;24.52;;;6.40;90.60;;;;;;4999095;28;20116;-57
2020/12/08 12:02:12;;;;;;;95.07;24.00;;;6.40;90.50;;;;;;5005737;28;20107;-57
2020/12/08 12:04:37;;;;;;;74.45;22.40;;;6.40;90.40;;;;;;5004222;28;20119;-57
2020/12/08 12:07:03;;;;;;;118.65;25.90;;;6.40;90.40;;;;;;5017557;28;20037;-57
2020/12/08 12:09:28;;;;;;;152.02;30.20;;;6.40;90.50;;;;;;4974127;28;20029;-57
2020/12/08 12:11:54;;;;;;;95.93;24.40;;;6.40;90.50;;;;;;5000191;28;20030;-57
2020/12/08 12:14:19;;;;;;;89.88;25.27;;;6.40;90.30;;;;;;4998911;28;20441;-56
2020/12/08 12:16:45;;;;;;;91.97;24.02;;;6.40;90.30;;;;;;5001981;28;20030;-57
2020/12/08 12:19:10;;;;;;;95.18;24.05;;;6.40;90.20;;;;;;5005272;28;20042;-57
2020/12/08 12:21:36;;;;;;;93.97;24.63;;;6.40;90.20;;;;;;5022552;28;20497;-56
2020/12/08 12:24:01;;;;;;;92.20;24.33;;;6.50;90.30;;;;;;5006820;28;20029;-57
2020/12/08 12:26:27;;;;;;;97.95;24.52;;;6.50;90.30;;;;;;5005673;28;20026;-57
2020/12/08 12:28:52;;;;;;;77.15;22.30;;;6.50;90.20;;;;;;5004762;28;20512;-57
2020/12/08 12:31:19;;;;;;;72.65;22.50;;;6.50;90.10;;;;;;5021197;28;20033;-58
2020/12/08 12:33:45;;;;;;;83.68;22.88;;;6.50;90.10;;;;;;5020074;28;20049;-58